createdAt,value
2023-04-18T00:00:27.500Z,13.27
2023-04-18T00:02:55.102Z,14.02
2023-04-18T00:05:21.914Z,13.73
2023-04-18T00:07:48.555Z,14.85
2023-04-18T00:10:15.439Z,14.25
2023-04-18T00:12:42.834Z,13.68
2023-04-18T00:15:09.682Z,13.60
2023-04-18T00:17:39.811Z,13.77
2023-04-18T00:20:10.681Z,14.65
2023-04-18T00:22:42.968Z,14.10
2023-04-18T00:25:10.865Z,14.52
2023-04-18T00:27:38.269Z,13.60
2023-04-18T00:30:06.226Z,14.35
2023-04-18T00:32:32.753Z,15.60
2023-04-18T00:34:59.331Z,14.95
2023-04-18T00:37:25.877Z,15.70
2023-04-18T00:39:53.882Z,14.57
2023-04-18T00:42:21.847Z,14.48
2023-04-18T00:44:49.072Z,13.68
2023-04-18T00:47:17.352Z,14.48
2023-04-18T00:49:45.019Z,15.25
2023-04-18T00:52:12.668Z,13.77
2023-04-18T00:54:41.025Z,13.85
2023-04-18T00:57:08.040Z,13.00
2023-04-18T00:59:35.564Z,12.15
2023-04-18T01:02:03.813Z,12.45
2023-04-18T01:04:32.767Z,12.85
2023-04-18T01:07:00.928Z,13.48
2023-04-18T01:09:29.133Z,13.93
2023-04-18T01:11:55.571Z,12.20
2023-04-18T01:14:22.167Z,14.00
2023-04-18T01:16:48.741Z,12.95
2023-04-18T01:19:19.180Z,13.70
2023-04-18T01:21:45.723Z,13.02
2023-04-18T01:24:16.554Z,13.30
2023-04-18T01:26:45.252Z,12.15
2023-04-18T01:29:11.817Z,13.35
2023-04-18T01:31:39.440Z,12.65
2023-04-18T01:34:07.838Z,12.45
2023-04-18T01:36:35.931Z,11.82
2023-04-18T01:39:02.417Z,13.63
2023-04-18T01:41:32.203Z,11.85
2023-04-18T01:43:59.288Z,12.63
2023-04-18T01:46:26.408Z,11.48
2023-04-18T01:48:53.846Z,13.45
2023-04-18T01:51:20.958Z,12.60
2023-04-18T01:53:47.450Z,12.52
2023-04-18T01:56:14.001Z,12.10
2023-04-18T01:58:41.614Z,11.30
2023-04-18T02:01:08.703Z,11.65
2023-04-18T02:03:35.450Z,11.50
2023-04-18T02:06:04.000Z,11.52
2023-04-18T02:08:30.920Z,11.20
2023-04-18T02:10:57.405Z,10.18
2023-04-18T02:13:23.909Z,11.35
2023-04-18T02:15:50.878Z,10.20
2023-04-18T02:18:18.153Z,10.40
2023-04-18T02:20:46.331Z,11.15
2023-04-18T02:23:12.829Z,11.85
2023-04-18T02:25:39.294Z,11.40
2023-04-18T02:28:05.722Z,10.88
2023-04-18T02:30:32.427Z,11.60
2023-04-18T02:33:01.995Z,12.05
2023-04-18T02:35:29.077Z,10.80
2023-04-18T02:37:55.508Z,11.85
2023-04-18T02:40:21.990Z,12.40
2023-04-18T02:42:48.458Z,11.15
2023-04-18T02:45:15.164Z,10.82
2023-04-18T02:47:53.802Z,10.55
2023-04-18T02:50:22.590Z,10.55
2023-04-18T02:52:49.325Z,11.02
2023-04-18T02:55:18.114Z,11.20
2023-04-18T02:57:45.405Z,11.20
2023-04-18T03:00:30.529Z,11.32
2023-04-18T03:03:13.137Z,12.38
2023-04-18T03:05:49.370Z,11.70
2023-04-18T03:08:16.216Z,11.32
2023-04-18T03:10:42.966Z,11.15
2023-04-18T03:13:09.799Z,11.05
2023-04-18T03:15:37.359Z,11.13
2023-04-18T03:18:05.214Z,11.90
2023-04-18T03:20:35.022Z,11.57
2023-04-18T03:23:01.494Z,11.80
2023-04-18T03:25:30.002Z,12.40
2023-04-18T03:27:57.794Z,11.88
2023-04-18T03:30:25.466Z,12.05
2023-04-18T03:32:55.944Z,12.77
2023-04-18T03:35:22.697Z,13.13
2023-04-18T03:37:49.748Z,11.85
2023-04-18T03:40:23.415Z,12.93
2023-04-18T03:42:52.367Z,12.27
2023-04-18T03:45:19.551Z,12.20
2023-04-18T03:47:46.877Z,13.13
2023-04-18T03:50:13.750Z,12.68
2023-04-18T03:52:42.034Z,13.30
2023-04-18T03:55:09.000Z,13.40
2023-04-18T03:57:35.503Z,12.55
2023-04-18T04:00:07.932Z,12.90
2023-04-18T04:02:42.222Z,12.95
2023-04-18T04:05:11.349Z,13.15
2023-04-18T04:07:38.027Z,13.43
2023-04-18T04:10:06.125Z,12.60
2023-04-18T04:12:32.612Z,13.20
2023-04-18T04:14:59.437Z,12.88
2023-04-18T04:17:26.465Z,12.10
2023-04-18T04:19:53.112Z,13.38
2023-04-18T04:22:20.855Z,14.07
2023-04-18T04:24:47.859Z,14.18
2023-04-18T04:27:18.847Z,14.93
2023-04-18T04:29:45.824Z,14.50
2023-04-18T04:32:13.459Z,13.82
2023-04-18T04:34:41.640Z,13.93
2023-04-18T04:37:10.453Z,12.77
2023-04-18T04:39:46.153Z,14.13
2023-04-18T04:42:26.707Z,13.38
2023-04-18T04:44:59.866Z,13.43
2023-04-18T04:47:26.433Z,14.60
2023-04-18T04:49:53.888Z,13.88
2023-04-18T04:52:20.415Z,12.43
2023-04-18T04:54:47.035Z,11.98
2023-04-18T04:57:16.048Z,12.75
2023-04-18T04:59:42.675Z,12.57
2023-04-18T05:02:09.345Z,13.10
2023-04-18T05:04:36.288Z,13.85
2023-04-18T05:07:02.829Z,12.65
2023-04-18T05:09:29.305Z,12.93
2023-04-18T05:11:55.753Z,12.75
2023-04-18T05:14:22.775Z,12.40
2023-04-18T05:16:49.281Z,12.15
2023-04-18T05:19:15.766Z,12.38
2023-04-18T05:21:42.238Z,12.30
2023-04-18T05:24:08.907Z,11.55
2023-04-18T05:26:35.385Z,12.32
2023-04-18T05:29:01.918Z,12.65
2023-04-18T05:31:28.846Z,13.30
2023-04-18T05:33:55.761Z,11.73
2023-04-18T05:36:22.567Z,12.20
2023-04-18T05:38:49.085Z,11.55
2023-04-18T05:41:15.825Z,12.70
2023-04-18T05:43:44.449Z,11.10
2023-04-18T05:46:12.799Z,11.63
2023-04-18T05:48:39.357Z,12.05
2023-04-18T05:51:05.898Z,12.05
2023-04-18T05:53:32.462Z,12.38
2023-04-18T05:55:59.874Z,12.30
2023-04-18T05:58:28.647Z,12.50
2023-04-18T06:00:55.147Z,12.25
2023-04-18T06:03:21.698Z,11.23
2023-04-18T06:05:48.320Z,12.38
2023-04-18T06:08:14.802Z,11.73
2023-04-18T06:10:41.246Z,12.30
2023-04-18T06:13:07.793Z,12.00
2023-04-18T06:15:34.933Z,12.10
2023-04-18T06:18:01.508Z,12.48
2023-04-18T06:20:28.095Z,12.32
2023-04-18T06:22:54.516Z,12.25
2023-04-18T06:25:20.966Z,12.60
2023-04-18T06:27:47.454Z,12.90
2023-04-18T06:30:14.082Z,11.52
2023-04-18T06:32:40.600Z,10.65
2023-04-18T06:35:07.446Z,12.15
2023-04-18T06:37:34.160Z,11.93
2023-04-18T06:40:00.706Z,13.05
2023-04-18T06:42:27.282Z,11.60
2023-04-18T06:44:54.169Z,11.35
2023-04-18T06:47:20.636Z,11.52
2023-04-18T06:49:47.144Z,11.18
2023-04-18T06:52:13.606Z,11.88
2023-04-18T06:54:40.119Z,12.80
2023-04-18T06:57:06.618Z,12.82
2023-04-18T06:59:33.185Z,11.80
2023-04-18T07:01:59.700Z,11.32
2023-04-18T07:04:26.365Z,11.07
2023-04-18T07:06:52.932Z,10.73
2023-04-18T07:09:19.876Z,11.93
2023-04-18T07:11:46.324Z,11.30
2023-04-18T07:14:12.941Z,12.15
2023-04-18T07:16:39.662Z,11.77
2023-04-18T07:19:06.704Z,11.48
2023-04-18T07:21:33.235Z,11.73
2023-04-18T07:23:59.718Z,11.80
2023-04-18T07:26:27.549Z,12.30
2023-04-18T07:28:54.008Z,12.80
2023-04-18T07:31:20.603Z,11.50
2023-04-18T07:33:47.076Z,12.52
2023-04-18T07:36:13.765Z,11.50
2023-04-18T07:38:40.289Z,11.65
2023-04-18T07:41:06.834Z,11.95
2023-04-18T07:43:33.294Z,11.63
2023-04-18T07:45:59.894Z,11.23
2023-04-18T07:48:26.819Z,11.68
2023-04-18T07:50:53.583Z,11.60
2023-04-18T07:53:20.149Z,10.93
2023-04-18T07:55:46.675Z,11.00
2023-04-18T07:58:13.716Z,10.90
2023-04-18T08:00:42.404Z,11.48
2023-04-18T08:03:12.371Z,11.63
2023-04-18T08:05:40.541Z,12.38
2023-04-18T08:08:08.377Z,12.00
2023-04-18T08:10:35.139Z,11.50
2023-04-18T08:13:02.516Z,10.95
2023-04-18T08:15:29.156Z,10.85
2023-04-18T08:17:55.742Z,11.25
2023-04-18T08:20:23.268Z,11.10
2023-04-18T08:23:05.178Z,11.77
2023-04-18T08:25:36.063Z,10.63
2023-04-18T08:28:02.494Z,12.25
2023-04-18T08:30:29.105Z,10.75
2023-04-18T08:32:55.668Z,11.70
2023-04-18T08:35:22.272Z,12.93
2023-04-18T08:37:48.727Z,12.77
2023-04-18T08:40:15.540Z,11.40
2023-04-18T08:42:46.679Z,11.70
2023-04-18T08:45:14.205Z,12.02
2023-04-18T08:47:43.480Z,10.63
2023-04-18T08:50:10.572Z,10.95
2023-04-18T08:52:39.292Z,11.30
2023-04-18T08:55:06.315Z,10.95
2023-04-18T08:57:33.230Z,10.80
2023-04-18T09:00:02.505Z,11.10
2023-04-18T09:02:38.803Z,10.52
2023-04-18T09:05:16.537Z,10.95
2023-04-18T09:07:43.189Z,11.65
2023-04-18T09:10:10.235Z,13.25
2023-04-18T09:12:56.785Z,12.25
2023-04-18T09:15:27.036Z,12.98
2023-04-18T09:17:56.218Z,13.77
2023-04-18T09:20:27.262Z,11.60
2023-04-18T09:22:57.650Z,12.13
2023-04-18T09:25:39.098Z,11.63
2023-04-18T09:28:28.214Z,12.18
2023-04-18T09:30:56.471Z,12.30
2023-04-18T09:33:37.015Z,12.55
2023-04-18T09:36:20.051Z,12.10
2023-04-18T09:38:47.796Z,11.70
2023-04-18T09:41:18.505Z,11.65
2023-04-18T09:43:47.252Z,11.40
2023-04-18T09:46:14.784Z,12.27
2023-04-18T09:48:41.816Z,11.60
2023-04-18T09:51:11.036Z,11.25
2023-04-18T09:53:39.892Z,11.05
2023-04-18T09:56:08.552Z,12.60
2023-04-18T09:58:41.483Z,11.13
2023-04-18T10:01:08.460Z,11.98
2023-04-18T10:03:44.326Z,10.98
2023-04-18T10:06:11.775Z,13.85
2023-04-18T10:08:40.007Z,12.15
2023-04-18T10:11:06.561Z,11.45
2023-04-18T10:13:35.607Z,12.10
2023-04-18T10:16:02.938Z,11.25
2023-04-18T10:18:29.441Z,12.20
2023-04-18T10:21:05.849Z,10.25
2023-04-18T10:23:32.521Z,11.38
2023-04-18T10:25:59.219Z,10.70
2023-04-18T10:28:27.498Z,10.82
2023-04-18T10:31:04.080Z,11.65
2023-04-18T10:33:41.086Z,10.95
2023-04-18T10:36:08.884Z,11.10
2023-04-18T10:38:45.982Z,11.90
2023-04-18T10:41:30.110Z,11.07
2023-04-18T10:44:08.975Z,10.95
2023-04-18T10:46:51.074Z,11.45
2023-04-18T10:49:17.573Z,10.43
2023-04-18T10:51:45.882Z,11.00
2023-04-18T10:54:38.789Z,10.15
2023-04-18T10:57:07.706Z,10.52
2023-04-18T10:59:38.340Z,10.00
2023-04-18T11:02:19.360Z,9.40
2023-04-18T11:04:54.085Z,9.93
2023-04-18T11:07:35.573Z,8.40
2023-04-18T11:10:03.244Z,9.93
2023-04-18T11:12:35.497Z,9.25
2023-04-18T11:15:09.356Z,9.15
2023-04-18T11:17:36.142Z,8.50
2023-04-18T11:20:14.197Z,9.15
2023-04-18T11:22:58.048Z,9.30
2023-04-18T11:25:31.870Z,7.97
2023-04-18T11:28:00.424Z,9.00
2023-04-18T11:30:28.318Z,8.52
2023-04-18T11:32:55.966Z,9.20
2023-04-18T11:35:22.801Z,8.90
2023-04-18T11:37:50.259Z,7.70
2023-04-18T11:40:16.802Z,7.95
2023-04-18T11:42:43.392Z,7.72
2023-04-18T11:45:12.714Z,8.23
2023-04-18T11:47:41.611Z,7.93
2023-04-18T11:50:10.217Z,8.10
2023-04-18T11:52:37.891Z,8.43
2023-04-18T11:55:21.081Z,9.98
2023-04-18T11:57:51.806Z,9.45
2023-04-18T12:00:22.259Z,9.80
2023-04-18T12:02:51.301Z,9.70
2023-04-18T12:05:26.511Z,8.85
2023-04-18T12:07:53.395Z,8.50
2023-04-18T12:10:19.800Z,9.82
2023-04-18T12:12:54.475Z,8.18
2023-04-18T12:15:27.198Z,8.95
2023-04-18T12:18:02.077Z,7.63
2023-04-18T12:20:52.524Z,8.57
2023-04-18T12:23:40.008Z,8.77
2023-04-18T12:26:08.115Z,8.63
2023-04-18T12:28:35.396Z,9.27
2023-04-18T12:31:02.663Z,8.63
2023-04-18T12:33:30.414Z,9.05
2023-04-18T12:35:57.336Z,9.38
2023-04-18T12:38:24.002Z,9.93
2023-04-18T12:40:51.713Z,9.30
2023-04-18T12:43:19.217Z,9.20
2023-04-18T12:45:47.002Z,9.18
2023-04-18T12:48:13.925Z,9.18
2023-04-18T12:50:40.558Z,8.40
2023-04-18T12:53:07.041Z,10.60
2023-04-18T12:55:33.507Z,9.05
2023-04-18T12:58:00.681Z,8.90
2023-04-18T13:00:29.715Z,8.38
2023-04-18T13:02:56.772Z,8.35
2023-04-18T13:05:27.308Z,8.18
2023-04-18T13:08:08.635Z,9.18
2023-04-18T13:10:39.639Z,8.23
2023-04-18T13:13:06.077Z,6.82
2023-04-18T13:15:32.608Z,8.00
2023-04-18T13:18:04.476Z,8.38
2023-04-18T13:20:32.182Z,7.40
2023-04-18T13:22:58.703Z,8.20
2023-04-18T13:25:26.510Z,7.10
2023-04-18T13:27:53.332Z,4.78
2023-04-18T13:30:19.970Z,4.35
2023-04-18T13:32:47.027Z,4.28
2023-04-18T13:35:13.717Z,4.53
2023-04-18T13:37:40.198Z,4.13
2023-04-18T13:40:07.255Z,4.22
2023-04-18T13:42:34.318Z,3.90
2023-04-18T13:45:00.758Z,3.70
2023-04-18T13:47:27.485Z,4.35
2023-04-18T13:49:54.117Z,3.70
2023-04-18T13:52:20.535Z,4.40
2023-04-18T13:54:47.961Z,3.80
2023-04-18T13:57:14.674Z,4.40
2023-04-18T13:59:41.504Z,3.83
2023-04-18T14:02:09.536Z,4.32
2023-04-18T14:04:36.621Z,4.55
2023-04-18T14:07:03.688Z,6.47
2023-04-18T14:09:30.145Z,6.15
2023-04-18T14:11:58.055Z,6.75
2023-04-18T14:14:24.617Z,6.03
2023-04-18T14:16:51.165Z,7.13
2023-04-18T14:19:17.897Z,6.18
2023-04-18T14:21:44.303Z,5.78
2023-04-18T14:24:11.822Z,4.28
2023-04-18T14:26:38.340Z,4.97
2023-04-18T14:29:05.117Z,4.32
2023-04-18T14:31:31.671Z,4.50
2023-04-18T14:33:58.187Z,4.03
2023-04-18T14:36:24.622Z,4.20
2023-04-18T14:38:51.103Z,4.30
2023-04-18T14:41:17.609Z,4.10
2023-04-18T14:43:44.126Z,4.28
2023-04-18T14:46:13.560Z,4.65
2023-04-18T14:48:40.082Z,4.78
2023-04-18T14:51:06.990Z,4.25
2023-04-18T14:53:34.088Z,4.68
2023-04-18T14:56:00.639Z,4.75
2023-04-18T14:58:27.128Z,4.20
2023-04-18T15:00:53.638Z,4.30
2023-04-18T15:03:20.293Z,4.85
2023-04-18T15:05:48.389Z,4.55
2023-04-18T15:08:16.100Z,4.20
2023-04-18T15:10:42.853Z,4.20
2023-04-18T15:13:10.148Z,4.32
2023-04-18T15:15:37.857Z,4.57
2023-04-18T15:18:04.739Z,4.05
2023-04-18T15:20:31.315Z,4.50
2023-04-18T15:22:57.774Z,4.18
2023-04-18T15:25:25.938Z,4.00
2023-04-18T15:27:52.895Z,4.38
2023-04-18T15:30:19.692Z,4.03
2023-04-18T15:32:47.559Z,4.75
2023-04-18T15:35:14.240Z,4.53
2023-04-18T15:37:41.457Z,6.15
2023-04-18T15:40:10.362Z,4.53
2023-04-18T15:42:36.907Z,5.93
2023-04-18T15:45:04.411Z,5.38
2023-04-18T15:47:33.636Z,5.78
2023-04-18T15:50:00.854Z,5.20
2023-04-18T15:52:27.350Z,6.05
2023-04-18T15:54:54.488Z,5.45
2023-04-18T15:57:21.780Z,5.95
2023-04-18T15:59:48.238Z,5.57
2023-04-18T16:02:14.938Z,5.50
2023-04-18T16:04:41.443Z,6.55
2023-04-18T16:07:08.771Z,5.88
2023-04-18T16:09:35.238Z,6.65
2023-04-18T16:12:03.188Z,6.05
2023-04-18T16:14:31.194Z,6.18
2023-04-18T16:16:58.814Z,5.72
2023-04-18T16:19:25.519Z,6.03
2023-04-18T16:21:52.394Z,5.13
2023-04-18T16:24:18.944Z,5.97
2023-04-18T16:26:45.450Z,6.18
2023-04-18T16:29:11.903Z,5.53
2023-04-18T16:31:38.436Z,5.45
2023-04-18T16:34:04.875Z,5.85
2023-04-18T16:36:34.617Z,5.15
2023-04-18T16:39:01.114Z,5.90
2023-04-18T16:41:27.626Z,5.20
2023-04-18T16:43:54.053Z,5.43
2023-04-18T16:46:20.534Z,6.05
2023-04-18T16:48:47.103Z,5.70
2023-04-18T16:51:13.613Z,5.22
2023-04-18T16:53:40.024Z,5.40
2023-04-18T16:56:07.895Z,5.38
2023-04-18T16:58:34.385Z,5.68
2023-04-18T17:01:03.704Z,5.72
2023-04-18T17:03:30.509Z,5.55
2023-04-18T17:05:57.095Z,5.82
2023-04-18T17:08:25.757Z,4.97
2023-04-18T17:10:52.746Z,4.75
2023-04-18T17:13:19.235Z,4.90
2023-04-18T17:15:46.029Z,5.63
2023-04-18T17:18:12.598Z,5.85
2023-04-18T17:20:39.088Z,5.50
2023-04-18T17:23:05.480Z,5.60
2023-04-18T17:25:31.927Z,5.55
2023-04-18T17:27:58.630Z,5.90
2023-04-18T17:30:25.168Z,5.75
2023-04-18T17:32:51.692Z,6.72
2023-04-18T17:35:18.375Z,5.60
2023-04-18T17:37:46.568Z,5.88
2023-04-18T17:40:13.713Z,5.78
2023-04-18T17:42:40.238Z,6.03
2023-04-18T17:45:08.289Z,6.32
2023-04-18T17:47:36.324Z,6.50
2023-04-18T17:50:06.787Z,6.97
2023-04-18T17:52:33.288Z,7.15
2023-04-18T17:55:01.411Z,7.45
2023-04-18T17:57:30.284Z,5.63
2023-04-18T17:59:56.706Z,6.22
2023-04-18T18:02:23.584Z,6.82
2023-04-18T18:04:51.309Z,7.13
2023-04-18T18:07:18.288Z,6.53
2023-04-18T18:09:45.520Z,7.32
2023-04-18T18:12:12.404Z,8.55
2023-04-18T18:14:40.437Z,8.23
2023-04-18T18:17:06.906Z,7.45
2023-04-18T18:19:35.961Z,6.68
2023-04-18T18:22:02.462Z,6.65
2023-04-18T18:24:29.022Z,7.35
2023-04-18T18:26:56.280Z,7.00
2023-04-18T18:29:22.861Z,6.57
2023-04-18T18:31:49.405Z,6.35
2023-04-18T18:34:16.789Z,8.57
2023-04-18T18:36:43.259Z,7.72
2023-04-18T18:39:11.088Z,7.60
2023-04-18T18:41:37.724Z,7.95
2023-04-18T18:44:04.310Z,7.15
2023-04-18T18:46:30.938Z,7.65
2023-04-18T18:48:57.587Z,7.15
2023-04-18T18:51:24.062Z,7.35
2023-04-18T18:53:50.567Z,6.88
2023-04-18T18:56:17.013Z,7.47
2023-04-18T18:58:43.789Z,7.05
2023-04-18T19:01:11.478Z,7.22
2023-04-18T19:03:38.230Z,6.70
2023-04-18T19:06:06.899Z,6.78
2023-04-18T19:08:33.769Z,7.07
2023-04-18T19:11:00.413Z,6.30
2023-04-18T19:13:26.953Z,7.15
2023-04-18T19:15:53.467Z,6.22
2023-04-18T19:18:20.218Z,6.45
2023-04-18T19:20:47.011Z,6.32
2023-04-18T19:23:13.454Z,6.93
2023-04-18T19:25:40.051Z,7.70
2023-04-18T19:28:06.606Z,6.95
2023-04-18T19:30:33.142Z,7.88
2023-04-18T19:32:59.926Z,7.05
2023-04-18T19:35:27.858Z,7.38
2023-04-18T19:38:01.253Z,7.20
2023-04-18T19:40:28.578Z,7.18
2023-04-18T19:42:55.106Z,7.55
2023-04-18T19:45:21.535Z,7.60
2023-04-18T19:47:48.087Z,7.10
2023-04-18T19:50:14.698Z,7.75
2023-04-18T19:52:41.280Z,7.25
2023-04-18T19:55:08.177Z,7.38
2023-04-18T19:57:41.413Z,7.68
2023-04-18T20:00:12.880Z,7.70
2023-04-18T20:02:40.514Z,8.30
2023-04-18T20:05:08.198Z,7.70
2023-04-18T20:07:35.600Z,7.38
2023-04-18T20:10:02.055Z,7.43
2023-04-18T20:12:28.582Z,7.20
2023-04-18T20:14:55.593Z,7.05
2023-04-18T20:17:22.161Z,8.10
2023-04-18T20:19:49.736Z,6.65
2023-04-18T20:22:17.211Z,7.70
2023-04-18T20:24:44.988Z,7.10
2023-04-18T20:27:11.862Z,8.65
2023-04-18T20:29:38.362Z,7.95
2023-04-18T20:32:05.118Z,7.70
2023-04-18T20:34:32.081Z,7.85
2023-04-18T20:36:59.902Z,8.20
2023-04-18T20:39:26.795Z,7.88
2023-04-18T20:41:54.247Z,7.93
2023-04-18T20:44:21.744Z,7.88
2023-04-18T20:46:48.321Z,7.72
2023-04-18T20:49:14.899Z,8.55
2023-04-18T20:51:41.449Z,8.52
2023-04-18T20:54:07.887Z,8.25
2023-04-18T20:56:36.582Z,8.60
2023-04-18T20:59:04.701Z,7.93
2023-04-18T21:01:31.411Z,7.90
2023-04-18T21:03:58.364Z,7.63
2023-04-18T21:06:25.315Z,8.50
2023-04-18T21:08:51.764Z,9.43
2023-04-18T21:11:18.222Z,9.95
2023-04-18T21:13:44.700Z,9.60
2023-04-18T21:16:11.237Z,9.23
2023-04-18T21:18:37.707Z,8.45
2023-04-18T21:21:04.492Z,9.05
2023-04-18T21:23:31.079Z,8.75
2023-04-18T21:25:57.497Z,8.48
2023-04-18T21:28:23.901Z,8.82
2023-04-18T21:30:50.687Z,9.52
2023-04-18T21:33:17.159Z,8.13
2023-04-18T21:35:43.704Z,9.13
2023-04-18T21:38:10.134Z,9.07
2023-04-18T21:40:37.277Z,9.85
2023-04-18T21:43:03.798Z,9.07
2023-04-18T21:45:30.376Z,8.88
2023-04-18T21:47:56.870Z,9.10
2023-04-18T21:50:23.474Z,9.18
2023-04-18T21:52:49.960Z,9.60
2023-04-18T21:55:17.710Z,9.63
2023-04-18T21:57:44.153Z,8.88
2023-04-18T22:00:11.205Z,9.98
2023-04-18T22:02:40.057Z,10.32
2023-04-18T22:05:07.630Z,8.93
2023-04-18T22:07:38.518Z,9.05
2023-04-18T22:10:10.974Z,9.57
2023-04-18T22:12:37.672Z,8.45
2023-04-18T22:15:04.305Z,8.73
2023-04-18T22:17:31.416Z,8.98
2023-04-18T22:19:57.959Z,8.80
2023-04-18T22:22:24.449Z,9.05
2023-04-18T22:24:50.903Z,9.55
2023-04-18T22:27:17.379Z,8.77
2023-04-18T22:29:43.758Z,9.25
2023-04-18T22:32:10.205Z,8.55
2023-04-18T22:34:36.599Z,8.90
2023-04-18T22:37:03.031Z,9.13
2023-04-18T22:39:31.101Z,8.70
2023-04-18T22:41:57.520Z,10.32
2023-04-18T22:44:23.970Z,8.93
2023-04-18T22:46:50.776Z,9.90
2023-04-18T22:49:17.894Z,8.93
2023-04-18T22:51:46.237Z,8.88
2023-04-18T22:54:12.833Z,9.40
2023-04-18T22:56:39.518Z,9.02
2023-04-18T22:59:05.996Z,10.25
2023-04-18T23:01:32.504Z,9.52
2023-04-18T23:03:59.182Z,9.50
2023-04-18T23:06:27.908Z,9.55
2023-04-18T23:08:54.429Z,9.55
2023-04-18T23:11:21.556Z,9.93
2023-04-18T23:13:48.015Z,9.23
2023-04-18T23:16:14.572Z,9.25
2023-04-18T23:18:41.162Z,8.55
2023-04-18T23:21:07.681Z,9.13
2023-04-18T23:23:34.155Z,9.00
2023-04-18T23:26:00.722Z,10.32
2023-04-18T23:28:27.255Z,9.82
2023-04-18T23:30:53.669Z,10.07
2023-04-18T23:33:20.526Z,9.40
2023-04-18T23:35:46.971Z,9.30
2023-04-18T23:38:13.411Z,10.32
2023-04-18T23:40:39.806Z,9.38
2023-04-18T23:43:06.393Z,8.90
2023-04-18T23:45:32.819Z,9.32
2023-04-18T23:47:59.269Z,9.43
2023-04-18T23:50:25.798Z,10.38
2023-04-18T23:52:52.233Z,10.45
2023-04-18T23:55:18.694Z,9.77
2023-04-18T23:57:45.105Z,9.80
